createdAt,value
2018-02-16T00:00:01.859Z,2.40
2018-02-16T00:01:01.810Z,2.23
2018-02-16T00:02:01.804Z,2.30
2018-02-16T00:03:01.800Z,2.26
2018-02-16T00:04:01.800Z,2.34
2018-02-16T00:05:01.828Z,2.34
2018-02-16T00:06:01.785Z,2.28
2018-02-16T00:07:01.783Z,2.40
2018-02-16T00:08:01.777Z,2.34
2018-02-16T00:09:01.769Z,2.41
2018-02-16T00:10:01.806Z,2.44
2018-02-16T00:11:01.789Z,2.44
2018-02-16T00:12:01.762Z,2.44
2018-02-16T00:13:01.754Z,2.45
2018-02-16T00:14:01.754Z,2.44
2018-02-16T00:15:01.782Z,2.45
2018-02-16T00:16:01.739Z,2.51
2018-02-16T00:17:01.741Z,2.52
2018-02-16T00:18:01.731Z,2.53
2018-02-16T00:19:01.732Z,2.61
2018-02-16T00:20:01.767Z,2.63
2018-02-16T00:21:01.716Z,2.74
2018-02-16T00:22:01.712Z,2.77
2018-02-16T00:23:01.711Z,2.71
2018-02-16T00:24:01.705Z,2.69
2018-02-16T00:25:01.758Z,2.73
2018-02-16T00:26:01.698Z,2.71
2018-02-16T00:27:01.732Z,2.73
2018-02-16T00:28:01.788Z,2.77
2018-02-16T00:29:01.683Z,2.81
2018-02-16T00:30:01.676Z,2.76
2018-02-16T00:31:01.715Z,2.79
2018-02-16T00:32:01.670Z,2.79
2018-02-16T00:33:01.672Z,2.77
2018-02-16T00:34:01.657Z,2.81
2018-02-16T00:35:01.653Z,2.64
2018-02-16T00:36:01.692Z,2.67
2018-02-16T00:37:01.647Z,2.70
2018-02-16T00:38:01.648Z,2.70
2018-02-16T00:39:01.637Z,2.67
2018-02-16T00:40:01.631Z,2.61
2018-02-16T00:41:01.666Z,2.67
2018-02-16T00:42:01.622Z,2.61
2018-02-16T00:43:01.633Z,2.55
2018-02-16T00:44:01.618Z,2.55
2018-02-16T00:45:01.612Z,2.52
2018-02-16T00:46:01.649Z,2.69
2018-02-16T00:47:01.605Z,2.69
2018-02-16T00:48:01.605Z,2.69
2018-02-16T00:49:01.602Z,2.71
2018-02-16T00:50:01.607Z,2.69
2018-02-16T00:51:01.630Z,2.71
2018-02-16T00:52:01.583Z,2.79
2018-02-16T00:53:01.579Z,2.64
2018-02-16T00:54:01.572Z,2.67
2018-02-16T00:55:01.598Z,2.59
2018-02-16T00:56:01.602Z,2.71
2018-02-16T00:57:01.559Z,2.64
2018-02-16T00:58:01.575Z,2.69
2018-02-16T00:59:01.556Z,2.66
2018-02-16T01:00:01.545Z,2.69
2018-02-16T01:01:01.579Z,2.66
2018-02-16T01:02:01.538Z,2.67
2018-02-16T01:03:01.536Z,2.70
2018-02-16T01:04:01.535Z,2.69
2018-02-16T01:05:01.582Z,2.66
2018-02-16T01:06:01.574Z,2.69
2018-02-16T01:07:01.520Z,2.66
2018-02-16T01:08:01.508Z,2.63
2018-02-16T01:09:01.546Z,2.51
2018-02-16T01:10:01.499Z,2.59
2018-02-16T01:11:01.496Z,2.58
2018-02-16T01:12:01.535Z,2.61
2018-02-16T01:13:01.484Z,2.63
2018-02-16T01:14:01.480Z,2.58
2018-02-16T01:15:01.476Z,2.64
2018-02-16T01:16:01.475Z,2.59
2018-02-16T01:17:01.535Z,2.56
2018-02-16T01:18:01.475Z,2.49
2018-02-16T01:19:01.498Z,2.59
2018-02-16T01:20:01.456Z,2.52
2018-02-16T01:21:01.449Z,2.58
2018-02-16T01:22:01.443Z,2.59
2018-02-16T01:23:01.484Z,2.64
2018-02-16T01:24:01.437Z,2.58
2018-02-16T01:25:01.437Z,2.69
2018-02-16T01:26:01.433Z,2.67
2018-02-16T01:27:01.422Z,2.66
2018-02-16T01:28:01.475Z,2.66
2018-02-16T01:29:01.414Z,2.69
2018-02-16T01:30:01.411Z,2.61
2018-02-16T01:31:01.413Z,2.55
2018-02-16T01:32:01.400Z,2.56
2018-02-16T01:33:01.453Z,2.48
2018-02-16T01:34:01.390Z,2.53
2018-02-16T01:35:01.390Z,2.48
2018-02-16T01:36:01.378Z,2.51
2018-02-16T01:37:01.379Z,2.38
2018-02-16T01:38:01.412Z,2.37
2018-02-16T01:39:01.407Z,2.19
2018-02-16T01:40:01.365Z,2.28
2018-02-16T01:41:02.296Z,2.26
2018-02-16T01:42:01.353Z,2.16
2018-02-16T01:43:01.352Z,2.13
2018-02-16T01:44:01.441Z,2.08
2018-02-16T01:45:01.340Z,2.12
2018-02-16T01:46:01.339Z,2.15
2018-02-16T01:47:01.367Z,2.13
2018-02-16T01:48:01.326Z,2.17
2018-02-16T01:49:01.319Z,2.13
2018-02-16T01:50:01.357Z,2.10
2018-02-16T01:51:01.312Z,2.08
2018-02-16T01:52:01.307Z,2.10
2018-02-16T01:53:01.307Z,2.16
2018-02-16T01:54:01.296Z,2.13
2018-02-16T01:55:01.337Z,2.12
2018-02-16T01:56:01.291Z,2.12
2018-02-16T01:57:01.284Z,2.08
2018-02-16T01:58:01.283Z,1.93
2018-02-16T01:59:01.273Z,1.98
2018-02-16T02:00:01.306Z,1.90
2018-02-16T02:01:01.266Z,2.02
2018-02-16T02:02:01.261Z,1.93
2018-02-16T02:03:01.254Z,1.82
2018-02-16T02:04:01.250Z,1.83
2018-02-16T02:05:01.301Z,1.90
2018-02-16T02:06:01.280Z,1.82
2018-02-16T02:07:01.241Z,1.82
2018-02-16T02:08:01.244Z,1.87
2018-02-16T02:09:01.633Z,1.75
2018-02-16T02:10:01.227Z,1.73
2018-02-16T02:11:01.258Z,1.78
2018-02-16T02:12:01.216Z,1.87
2018-02-16T02:13:01.211Z,1.85
2018-02-16T02:14:01.203Z,1.89
2018-02-16T02:15:01.198Z,1.90
2018-02-16T02:16:01.240Z,2.02
2018-02-16T02:17:01.190Z,1.97
2018-02-16T02:18:01.183Z,2.13
2018-02-16T02:19:01.178Z,2.12
2018-02-16T02:20:01.211Z,1.97
2018-02-16T02:21:01.175Z,2.09
2018-02-16T02:22:01.164Z,2.06
2018-02-16T02:23:01.175Z,2.06
2018-02-16T02:24:01.156Z,1.98
2018-02-16T02:25:01.206Z,1.94
2018-02-16T02:26:01.147Z,2.04
2018-02-16T02:27:01.144Z,2.01
2018-02-16T02:28:01.136Z,1.99
2018-02-16T02:29:01.133Z,1.98
2018-02-16T02:30:01.171Z,1.99
2018-02-16T02:31:01.132Z,2.12
2018-02-16T02:32:01.118Z,2.04
2018-02-16T02:33:01.115Z,1.99
2018-02-16T02:34:01.121Z,1.99
2018-02-16T02:35:01.143Z,1.98
2018-02-16T02:36:01.102Z,1.99
2018-02-16T02:37:01.098Z,2.08
2018-02-16T02:38:01.093Z,2.12
2018-02-16T02:39:01.086Z,2.12
2018-02-16T02:40:01.141Z,2.12
2018-02-16T02:41:01.078Z,2.09
2018-02-16T02:42:01.076Z,2.10
2018-02-16T02:43:01.072Z,2.09
2018-02-16T02:44:01.108Z,2.10
2018-02-16T02:45:01.066Z,1.98
2018-02-16T02:46:01.094Z,1.99
2018-02-16T02:47:01.052Z,1.99
2018-02-16T02:48:01.045Z,1.98
2018-02-16T02:49:01.064Z,1.91
2018-02-16T02:50:01.076Z,1.83
2018-02-16T02:51:01.048Z,1.83
2018-02-16T02:52:01.032Z,1.87
2018-02-16T02:53:01.024Z,1.90
2018-02-16T02:54:01.022Z,2.02
2018-02-16T02:55:01.051Z,1.99
2018-02-16T02:56:01.014Z,1.98
2018-02-16T02:57:01.005Z,1.98
2018-02-16T02:58:01.000Z,1.90
2018-02-16T02:59:00.996Z,1.94
2018-02-16T03:00:01.041Z,1.83
2018-02-16T03:01:00.984Z,1.82
2018-02-16T03:02:00.979Z,1.82
2018-02-16T03:03:00.980Z,1.78
2018-02-16T03:04:00.973Z,1.87
2018-02-16T03:05:01.021Z,1.75
2018-02-16T03:06:00.965Z,1.80
2018-02-16T03:07:00.961Z,1.87
2018-02-16T03:08:00.956Z,1.82
2018-02-16T03:09:00.945Z,1.78
2018-02-16T03:10:00.947Z,1.76
2018-02-16T03:11:00.982Z,1.80
2018-02-16T03:12:00.937Z,1.87
2018-02-16T03:13:00.930Z,1.83
2018-02-16T03:14:00.925Z,1.78
2018-02-16T03:15:00.920Z,1.82
2018-02-16T03:16:00.969Z,1.82
2018-02-16T03:17:00.914Z,1.89
2018-02-16T03:18:00.909Z,1.82
2018-02-16T03:19:00.903Z,1.82
2018-02-16T03:20:00.898Z,1.90
2018-02-16T03:21:00.896Z,1.87
2018-02-16T03:22:00.930Z,1.93
2018-02-16T03:23:00.888Z,1.83
2018-02-16T03:24:00.879Z,1.85
2018-02-16T03:25:00.873Z,1.87
2018-02-16T03:26:00.870Z,1.90
2018-02-16T03:27:00.904Z,1.99
2018-02-16T03:28:00.860Z,2.01
2018-02-16T03:29:00.858Z,2.06
2018-02-16T03:30:00.848Z,2.02
2018-02-16T03:31:00.848Z,1.99
2018-02-16T03:32:00.882Z,1.97
2018-02-16T03:33:00.839Z,1.99
2018-02-16T03:34:00.838Z,2.04
2018-02-16T03:35:00.828Z,2.02
2018-02-16T03:36:00.824Z,1.97
2018-02-16T03:37:00.874Z,2.08
2018-02-16T03:38:00.816Z,1.99
2018-02-16T03:39:00.811Z,2.12
2018-02-16T03:40:00.805Z,2.12
2018-02-16T03:41:00.805Z,2.22
2018-02-16T03:42:00.839Z,2.13
2018-02-16T03:43:00.829Z,2.20
2018-02-16T03:44:00.790Z,2.10
2018-02-16T03:45:00.783Z,2.17
2018-02-16T03:46:00.779Z,2.10
2018-02-16T03:47:00.772Z,2.09
2018-02-16T03:48:00.823Z,2.15
2018-02-16T03:49:00.762Z,2.15
2018-02-16T03:50:00.763Z,2.13
2018-02-16T03:51:00.797Z,2.12
2018-02-16T03:52:00.748Z,2.10
2018-02-16T03:53:00.744Z,2.08
2018-02-16T03:54:00.777Z,2.06
2018-02-16T03:55:00.740Z,2.15
2018-02-16T03:56:00.731Z,2.09
2018-02-16T03:57:00.728Z,2.12
2018-02-16T03:58:00.726Z,2.09
2018-02-16T03:59:00.761Z,2.16
2018-02-16T04:00:00.726Z,2.19
2018-02-16T04:01:00.710Z,2.13
2018-02-16T04:02:00.705Z,2.10
2018-02-16T04:03:00.698Z,2.12
2018-02-16T04:04:00.735Z,2.13
2018-02-16T04:05:00.691Z,2.15
2018-02-16T04:06:00.687Z,2.15
2018-02-16T04:07:00.681Z,2.13
2018-02-16T04:08:00.676Z,2.17
2018-02-16T04:09:00.727Z,2.08
2018-02-16T04:10:00.708Z,2.10
2018-02-16T04:11:00.663Z,2.10
2018-02-16T04:12:00.658Z,2.09
2018-02-16T04:13:00.653Z,2.13
2018-02-16T04:14:00.650Z,2.12
2018-02-16T04:15:00.704Z,2.12
2018-02-16T04:16:00.593Z,2.13
2018-02-16T04:17:00.601Z,2.19
2018-02-16T04:18:00.583Z,2.22
2018-02-16T04:19:00.594Z,2.12
2018-02-16T04:20:00.618Z,2.12
2018-02-16T04:21:00.611Z,2.19
2018-02-16T04:22:00.575Z,2.16
2018-02-16T04:23:00.568Z,2.27
2018-02-16T04:24:00.563Z,2.41
2018-02-16T04:25:00.551Z,2.31
2018-02-16T04:26:00.582Z,2.30
2018-02-16T04:27:00.551Z,2.23
2018-02-16T04:28:00.545Z,2.26
2018-02-16T04:29:00.532Z,2.31
2018-02-16T04:30:00.544Z,2.34
2018-02-16T04:31:00.567Z,2.40
2018-02-16T04:32:00.529Z,2.38
2018-02-16T04:33:00.515Z,2.37
2018-02-16T04:34:00.521Z,2.27
2018-02-16T04:35:00.552Z,2.23
2018-02-16T04:36:00.540Z,2.28
2018-02-16T04:37:00.507Z,2.19
2018-02-16T04:38:00.493Z,2.23
2018-02-16T04:39:00.495Z,2.26
2018-02-16T04:40:00.492Z,2.20
2018-02-16T04:41:00.535Z,2.30
2018-02-16T04:42:00.938Z,2.28
2018-02-16T04:43:00.475Z,2.30
2018-02-16T04:44:00.503Z,2.28
2018-02-16T04:45:00.460Z,2.31
2018-02-16T04:46:00.468Z,2.30
2018-02-16T04:47:00.500Z,2.26
2018-02-16T04:48:00.629Z,2.26
2018-02-16T04:49:00.445Z,2.30
2018-02-16T04:50:00.436Z,2.30
2018-02-16T04:51:00.437Z,2.22
2018-02-16T04:52:00.466Z,2.23
2018-02-16T04:53:00.437Z,2.33
2018-02-16T04:54:00.422Z,2.31
2018-02-16T04:55:00.426Z,2.41
2018-02-16T04:56:00.412Z,2.31
2018-02-16T04:57:00.456Z,2.38
2018-02-16T04:58:00.402Z,2.31
2018-02-16T04:59:00.406Z,2.40
2018-02-16T05:00:00.404Z,2.38
2018-02-16T05:01:00.823Z,2.41
2018-02-16T05:02:00.428Z,2.38
2018-02-16T05:03:00.381Z,2.35
2018-02-16T05:04:00.383Z,2.31
2018-02-16T05:05:00.381Z,2.27
2018-02-16T05:06:00.367Z,2.26
2018-02-16T05:07:00.416Z,2.33
2018-02-16T05:08:00.366Z,2.31
2018-02-16T05:09:00.365Z,2.26
2018-02-16T05:10:00.362Z,2.16
2018-02-16T05:11:00.345Z,2.16
2018-02-16T05:12:00.391Z,2.13
2018-02-16T05:13:00.336Z,2.20
2018-02-16T05:14:00.357Z,2.33
2018-02-16T05:15:00.369Z,2.20
2018-02-16T05:16:00.350Z,2.28
2018-02-16T05:17:00.436Z,2.23
2018-02-16T05:18:00.400Z,2.12
2018-02-16T05:19:00.372Z,2.13
2018-02-16T05:20:00.321Z,2.16
2018-02-16T05:21:00.380Z,2.16
2018-02-16T05:22:00.360Z,2.10
2018-02-16T05:23:00.301Z,1.98
2018-02-16T05:24:00.366Z,1.90
2018-02-16T05:25:00.405Z,1.91
2018-02-16T05:26:00.380Z,1.85
2018-02-16T05:27:00.299Z,1.78
2018-02-16T05:28:00.268Z,1.75
2018-02-16T05:29:00.304Z,1.64
2018-02-16T05:30:00.261Z,1.64
2018-02-16T05:31:00.265Z,1.68
2018-02-16T05:32:00.261Z,1.69
2018-02-16T05:33:00.249Z,1.69
2018-02-16T05:34:00.289Z,1.61
2018-02-16T05:35:00.239Z,1.76
2018-02-16T05:36:00.242Z,1.68
2018-02-16T05:37:00.273Z,1.69
2018-02-16T05:38:00.224Z,1.65
2018-02-16T05:39:00.262Z,1.64
2018-02-16T05:40:00.224Z,1.58
2018-02-16T05:41:00.211Z,1.50
2018-02-16T05:42:00.217Z,1.51
2018-02-16T05:43:00.210Z,1.43
2018-02-16T05:44:00.248Z,1.42
2018-02-16T05:45:00.191Z,1.40
2018-02-16T05:46:00.196Z,1.51
2018-02-16T05:47:00.196Z,1.51
2018-02-16T05:48:00.180Z,1.54
2018-02-16T05:49:00.219Z,1.46
2018-02-16T05:50:00.181Z,1.57
2018-02-16T05:51:00.172Z,1.52
2018-02-16T05:52:01.042Z,1.52
2018-02-16T05:53:00.153Z,1.61
2018-02-16T05:54:00.195Z,1.54
2018-02-16T05:55:00.154Z,1.58
2018-02-16T05:56:00.152Z,1.62
2018-02-16T05:57:00.173Z,1.62
2018-02-16T05:58:00.145Z,1.62
2018-02-16T05:59:00.136Z,1.71
2018-02-16T06:00:00.166Z,1.69
2018-02-16T06:01:00.125Z,1.71
2018-02-16T06:02:00.119Z,1.76
2018-02-16T06:03:00.105Z,1.76
2018-02-16T06:04:00.143Z,1.79
2018-02-16T06:05:00.107Z,1.65
2018-02-16T06:06:00.310Z,1.65
2018-02-16T06:07:00.123Z,1.72
2018-02-16T06:08:00.080Z,1.78
2018-02-16T06:09:00.123Z,1.72
2018-02-16T06:10:00.079Z,1.68
2018-02-16T06:11:00.075Z,1.65
2018-02-16T06:12:00.069Z,1.68
2018-02-16T06:13:00.062Z,1.60
2018-02-16T06:14:00.095Z,1.43
2018-02-16T06:15:00.057Z,1.46
2018-02-16T06:16:00.097Z,1.42
2018-02-16T06:17:00.036Z,1.39
2018-02-16T06:18:00.040Z,1.36
2018-02-16T06:19:00.800Z,1.32
2018-02-16T06:20:00.020Z,1.33
2018-02-16T06:21:00.027Z,1.25
2018-02-16T06:22:00.010Z,1.22
2018-02-16T06:23:00.013Z,1.24
2018-02-16T06:24:00.053Z,1.25
2018-02-16T06:24:59.993Z,1.29
2018-02-16T06:25:59.997Z,1.25
2018-02-16T06:26:59.991Z,1.32
2018-02-16T06:28:00.037Z,1.19
2018-02-16T06:28:59.984Z,1.16
2018-02-16T06:29:59.965Z,1.15
2018-02-16T06:30:59.991Z,1.10
2018-02-16T06:31:59.964Z,1.10
2018-02-16T06:33:00.002Z,1.10
2018-02-16T06:33:59.946Z,1.03
2018-02-16T06:34:59.947Z,1.08
2018-02-16T06:36:00.199Z,1.03
2018-02-16T06:36:59.937Z,1.03
2018-02-16T06:37:59.977Z,0.86
2018-02-16T06:38:59.917Z,0.97
2018-02-16T06:39:59.953Z,0.92
2018-02-16T06:40:59.905Z,1.00
2018-02-16T06:41:59.909Z,0.94
2018-02-16T06:42:59.905Z,0.92
2018-02-16T06:43:59.936Z,0.92
2018-02-16T06:44:59.940Z,0.92
2018-02-16T06:45:59.888Z,0.98
2018-02-16T06:46:59.873Z,0.98
2018-02-16T06:48:00.622Z,0.98
2018-02-16T06:48:59.873Z,0.94
2018-02-16T06:49:59.904Z,0.94
2018-02-16T06:50:59.854Z,0.96
2018-02-16T06:51:59.845Z,1.03
2018-02-16T06:52:59.849Z,1.08
2018-02-16T06:53:59.852Z,1.14
2018-02-16T06:54:59.873Z,1.14
2018-02-16T06:55:59.824Z,1.06
2018-02-16T06:56:59.823Z,1.15
2018-02-16T06:57:59.820Z,1.14
2018-02-16T06:58:59.822Z,1.19
2018-02-16T06:59:59.900Z,1.10
2018-02-16T07:00:59.804Z,1.12
2018-02-16T07:01:59.790Z,1.18
2018-02-16T07:02:59.797Z,1.19
2018-02-16T07:03:59.849Z,1.18
2018-02-16T07:04:59.775Z,1.16
2018-02-16T07:05:59.780Z,1.15
2018-02-16T07:06:59.772Z,1.16
2018-02-16T07:07:59.767Z,1.21
2018-02-16T07:08:59.753Z,1.21
2018-02-16T07:09:59.783Z,1.21
2018-02-16T07:10:59.797Z,1.21
2018-02-16T07:11:59.734Z,1.22
2018-02-16T07:13:00.568Z,1.25
2018-02-16T07:13:59.725Z,1.36
2018-02-16T07:14:59.771Z,1.36
2018-02-16T07:15:59.724Z,1.43
2018-02-16T07:16:59.746Z,1.52
2018-02-16T07:17:59.708Z,1.55
2018-02-16T07:18:59.695Z,1.69
2018-02-16T07:19:59.691Z,1.90
2018-02-16T07:20:59.693Z,2.09
2018-02-16T07:21:59.735Z,2.40
2018-02-16T07:22:59.686Z,2.52
2018-02-16T07:23:59.682Z,2.82
2018-02-16T07:24:59.674Z,2.76
2018-02-16T07:25:59.714Z,2.88
2018-02-16T07:26:59.679Z,2.87
2018-02-16T07:27:59.710Z,3.07
2018-02-16T07:28:59.655Z,3.27
2018-02-16T07:29:59.665Z,3.30
2018-02-16T07:30:59.654Z,3.46
2018-02-16T07:31:59.644Z,3.64
2018-02-16T07:32:59.686Z,3.90
2018-02-16T07:33:59.726Z,4.10
2018-02-16T07:34:59.642Z,4.14
2018-02-16T07:35:59.637Z,4.50
2018-02-16T07:36:59.639Z,4.34
2018-02-16T07:37:59.663Z,4.34
2018-02-16T07:38:59.632Z,4.24
2018-02-16T07:39:59.623Z,4.42
2018-02-16T07:40:59.620Z,4.37
2018-02-16T07:41:59.629Z,4.51
2018-02-16T07:42:59.675Z,4.46
2018-02-16T07:43:59.616Z,4.62
2018-02-16T07:45:00.506Z,4.98
2018-02-16T07:45:59.653Z,5.14
2018-02-16T07:46:59.618Z,5.07
2018-02-16T07:47:59.613Z,5.16
2018-02-16T07:48:59.651Z,5.46
2018-02-16T07:49:59.615Z,5.68
2018-02-16T07:50:59.621Z,5.78
2018-02-16T07:51:59.623Z,6.30
2018-02-16T07:52:59.613Z,6.63
2018-02-16T07:53:59.665Z,6.97
2018-02-16T07:54:59.619Z,7.17
2018-02-16T07:55:59.621Z,7.49
2018-02-16T07:56:59.623Z,7.59
2018-02-16T07:57:59.620Z,7.71
2018-02-16T07:58:59.679Z,7.63
2018-02-16T07:59:59.659Z,7.79
2018-02-16T08:00:59.629Z,7.47
2018-02-16T08:01:59.620Z,7.63
2018-02-16T08:02:59.632Z,7.59
2018-02-16T08:03:59.633Z,7.26
2018-02-16T08:04:59.679Z,7.27
2018-02-16T08:05:59.632Z,7.58
2018-02-16T08:06:59.636Z,7.49
2018-02-16T08:07:59.633Z,7.37
2018-02-16T08:08:59.636Z,7.32
2018-02-16T08:09:59.686Z,7.15
2018-02-16T08:10:59.651Z,6.59
2018-02-16T08:11:59.651Z,6.59
2018-02-16T08:12:59.646Z,6.76
2018-02-16T08:13:59.659Z,7.35
2018-02-16T08:14:59.740Z,7.49
2018-02-16T08:15:59.655Z,7.97
2018-02-16T08:16:59.660Z,8.08
2018-02-16T08:17:59.675Z,8.51
2018-02-16T08:18:59.680Z,8.91
2018-02-16T08:19:59.713Z,8.78
2018-02-16T08:20:59.676Z,8.62
2018-02-16T08:21:59.687Z,8.76
2018-02-16T08:22:59.683Z,8.93
2018-02-16T08:23:59.697Z,9.10
2018-02-16T08:24:59.728Z,8.94
2018-02-16T08:25:59.703Z,8.86
2018-02-16T08:26:59.701Z,9.15
2018-02-16T08:27:59.717Z,9.28
2018-02-16T08:28:59.719Z,9.27
2018-02-16T08:29:59.762Z,9.45
2018-02-16T08:30:59.720Z,9.52
2018-02-16T08:31:59.723Z,9.45
2018-02-16T08:32:59.728Z,9.60
2018-02-16T08:33:59.735Z,9.75
2018-02-16T08:34:59.790Z,9.99
2018-02-16T08:35:59.787Z,9.99
2018-02-16T08:36:59.759Z,9.66
2018-02-16T08:37:59.764Z,9.78
2018-02-16T08:38:59.761Z,10.06
2018-02-16T08:39:59.763Z,10.15
2018-02-16T08:40:59.821Z,10.21
2018-02-16T08:41:59.777Z,10.18
2018-02-16T08:42:59.782Z,10.22
2018-02-16T08:43:59.799Z,10.26
2018-02-16T08:44:59.805Z,10.04
2018-02-16T08:45:59.859Z,9.97
2018-02-16T08:46:59.817Z,9.89
2018-02-16T08:47:59.811Z,9.60
2018-02-16T08:48:59.826Z,9.91
2018-02-16T08:49:59.877Z,9.31
2018-02-16T08:50:59.831Z,9.39
2018-02-16T08:51:59.885Z,9.32
2018-02-16T08:52:59.854Z,9.42
2018-02-16T08:53:59.867Z,9.83
2018-02-16T08:54:59.868Z,9.96
2018-02-16T08:55:59.875Z,9.76
2018-02-16T08:56:59.913Z,10.30
2018-02-16T08:57:59.888Z,9.96
2018-02-16T08:58:59.883Z,9.96
2018-02-16T08:59:59.901Z,9.89
2018-02-16T09:00:59.909Z,9.66
2018-02-16T09:01:59.952Z,9.66
2018-02-16T09:02:59.912Z,9.85
2018-02-16T09:03:59.919Z,9.66
2018-02-16T09:04:59.934Z,9.42
2018-02-16T09:05:59.944Z,9.78
2018-02-16T09:06:59.995Z,10.18
2018-02-16T09:07:59.980Z,10.40
2018-02-16T09:08:59.953Z,10.19
2018-02-16T09:10:00.000Z,10.36
2018-02-16T09:10:59.977Z,10.51
2018-02-16T09:11:59.977Z,10.70
2018-02-16T09:13:00.043Z,11.09
2018-02-16T09:14:00.005Z,11.06
2018-02-16T09:15:00.047Z,11.20
2018-02-16T09:16:00.037Z,11.36
2018-02-16T09:17:00.028Z,11.44
2018-02-16T09:18:00.055Z,11.39
2018-02-16T09:19:00.081Z,11.82
2018-02-16T09:20:00.048Z,11.93
2018-02-16T09:21:00.047Z,12.21
2018-02-16T09:22:00.065Z,11.93
2018-02-16T09:23:00.075Z,11.90
2018-02-16T09:24:00.123Z,11.43
2018-02-16T09:25:00.100Z,11.46
2018-02-16T09:26:00.088Z,11.52
2018-02-16T09:27:00.116Z,11.50
2018-02-16T09:28:00.131Z,11.34
2018-02-16T09:29:00.159Z,10.91
2018-02-16T09:30:00.181Z,10.25
2018-02-16T09:31:00.144Z,9.78
2018-02-16T09:32:00.151Z,10.00
2018-02-16T09:33:00.164Z,10.47
2018-02-16T09:34:00.171Z,10.99
2018-02-16T09:35:00.333Z,11.06
2018-02-16T09:36:00.238Z,11.21
2018-02-16T09:37:00.192Z,10.73
2018-02-16T09:38:00.208Z,11.01
2018-02-16T09:39:00.219Z,11.49
2018-02-16T09:40:01.103Z,11.28
2018-02-16T09:41:00.272Z,11.29
2018-02-16T09:42:00.236Z,11.38
2018-02-16T09:43:00.247Z,11.49
2018-02-16T09:44:00.265Z,11.67
2018-02-16T09:45:01.177Z,11.75
2018-02-16T09:46:00.329Z,11.89
2018-02-16T09:47:00.296Z,12.13
2018-02-16T09:48:00.378Z,12.12
2018-02-16T09:49:00.304Z,12.27
2018-02-16T09:50:00.325Z,12.42
2018-02-16T09:51:00.916Z,12.21
2018-02-16T09:52:00.768Z,11.24
2018-02-16T09:53:00.530Z,11.53
2018-02-16T09:54:00.370Z,11.75
2018-02-16T09:55:00.408Z,11.80
2018-02-16T09:56:00.422Z,12.12
2018-02-16T09:57:00.389Z,12.33
2018-02-16T09:58:01.692Z,12.41
2018-02-16T09:59:00.698Z,12.60
2018-02-16T10:00:00.433Z,13.00
2018-02-16T10:01:00.483Z,13.03
2018-02-16T10:02:00.456Z,13.07
2018-02-16T10:03:00.456Z,13.03
2018-02-16T10:04:00.473Z,13.25
2018-02-16T10:05:00.529Z,13.41
2018-02-16T10:06:00.491Z,13.55
2018-02-16T10:07:00.500Z,13.37
2018-02-16T10:08:00.726Z,13.21
2018-02-16T10:09:01.276Z,12.84
2018-02-16T10:10:00.990Z,12.39
2018-02-16T10:11:00.891Z,12.34
2018-02-16T10:13:40.199Z,12.63
2018-02-16T10:14:40.140Z,12.57
2018-02-16T10:15:40.207Z,12.62
2018-02-16T10:16:40.180Z,12.46
2018-02-16T10:17:41.742Z,12.62
2018-02-16T10:18:42.199Z,12.56
2018-02-16T10:19:40.226Z,12.51
2018-02-16T10:20:40.271Z,12.63
2018-02-16T10:21:40.231Z,12.85
2018-02-16T10:22:40.236Z,13.17
2018-02-16T10:23:40.244Z,13.18
2018-02-16T10:24:40.573Z,13.02
2018-02-16T10:25:40.321Z,12.46
2018-02-16T10:26:40.283Z,12.46
2018-02-16T10:27:40.301Z,12.57
2018-02-16T10:28:40.304Z,12.89
2018-02-16T10:29:40.353Z,12.74
2018-02-16T10:30:40.339Z,12.42
2018-02-16T10:31:40.337Z,12.01
2018-02-16T10:32:41.192Z,12.38
2018-02-16T10:33:40.398Z,12.69
2018-02-16T10:34:42.193Z,12.89
2018-02-16T10:35:41.256Z,13.11
2018-02-16T10:36:40.540Z,13.00
2018-02-16T10:37:40.414Z,13.22
2018-02-16T10:38:40.416Z,13.27
2018-02-16T10:39:40.466Z,13.20
2018-02-16T10:40:40.448Z,12.70
2018-02-16T10:41:40.461Z,12.82
2018-02-16T10:42:40.464Z,12.69
2018-02-16T10:43:40.486Z,12.99
2018-02-16T10:44:40.539Z,12.52
2018-02-16T10:45:40.513Z,12.54
2018-02-16T10:46:41.257Z,12.15
2018-02-16T10:47:40.634Z,11.71
2018-02-16T10:48:40.769Z,11.77
2018-02-16T10:49:40.601Z,12.06
2018-02-16T10:50:40.558Z,12.39
2018-02-16T10:51:40.573Z,12.30
2018-02-16T10:52:40.597Z,12.67
2018-02-16T10:53:45.356Z,12.89
2018-02-16T10:54:40.777Z,12.51
2018-02-16T10:55:40.629Z,12.84
2018-02-16T10:56:40.632Z,12.85
2018-02-16T10:57:40.646Z,12.67
2018-02-16T10:58:40.654Z,13.03
2018-02-16T10:59:40.709Z,12.79
2018-02-16T11:00:40.687Z,11.38
2018-02-16T11:01:40.701Z,11.24
2018-02-16T11:02:40.703Z,11.70
2018-02-16T11:03:40.718Z,12.01
2018-02-16T11:04:40.765Z,12.15
2018-02-16T11:05:40.739Z,12.39
2018-02-16T11:06:40.767Z,12.52
2018-02-16T11:07:40.763Z,12.84
2018-02-16T11:08:40.787Z,12.54
2018-02-16T11:09:40.828Z,12.75
2018-02-16T11:10:40.807Z,12.78
2018-02-16T11:11:40.820Z,13.09
2018-02-16T11:12:40.832Z,13.51
2018-02-16T11:13:40.837Z,13.63
2018-02-16T11:14:40.902Z,13.59
2018-02-16T11:15:40.914Z,13.81
2018-02-16T11:16:40.886Z,13.65
2018-02-16T11:17:40.899Z,12.60
2018-02-16T11:18:40.900Z,11.74
2018-02-16T11:19:40.959Z,11.77
2018-02-16T11:20:40.966Z,12.37
2018-02-16T11:21:40.947Z,12.79
2018-02-16T11:22:40.966Z,13.32
2018-02-16T11:23:40.978Z,13.22
2018-02-16T11:24:41.027Z,12.67
2018-02-16T11:25:41.036Z,12.75
2018-02-16T11:26:41.006Z,12.37
2018-02-16T11:27:41.026Z,12.89
2018-02-16T11:28:41.039Z,13.47
2018-02-16T11:29:41.087Z,13.89
2018-02-16T11:30:41.107Z,14.16
2018-02-16T11:31:41.072Z,13.77
2018-02-16T11:32:41.093Z,13.99
2018-02-16T11:33:41.108Z,13.94
2018-02-16T11:34:41.109Z,13.33
2018-02-16T11:35:41.179Z,14.01
2018-02-16T11:36:41.147Z,14.14
2018-02-16T11:37:41.160Z,13.89
2018-02-16T11:38:41.174Z,13.51
2018-02-16T11:39:41.186Z,14.19
2018-02-16T11:40:41.230Z,14.32
2018-02-16T11:41:41.253Z,14.47
2018-02-16T11:42:41.231Z,14.01
2018-02-16T11:43:41.236Z,12.51
2018-02-16T11:44:41.242Z,12.05
2018-02-16T11:45:41.291Z,11.72
2018-02-16T11:46:41.264Z,11.36
2018-02-16T11:47:41.284Z,11.17
2018-02-16T11:48:41.285Z,11.07
2018-02-16T11:49:41.298Z,11.50
2018-02-16T11:50:41.358Z,12.21
2018-02-16T11:51:41.315Z,12.02
2018-02-16T11:52:41.328Z,11.61
2018-02-16T11:53:41.349Z,11.44
2018-02-16T11:54:41.340Z,11.25
2018-02-16T11:55:41.385Z,10.56
2018-02-16T11:56:41.365Z,10.65
2018-02-16T11:57:41.358Z,11.44
2018-02-16T11:58:41.385Z,11.20
2018-02-16T11:59:41.385Z,11.17
2018-02-16T12:00:41.426Z,10.71
2018-02-16T12:01:41.386Z,10.18
2018-02-16T12:02:41.388Z,9.81
2018-02-16T12:03:41.406Z,9.42
2018-02-16T12:04:41.407Z,9.28
2018-02-16T12:05:41.453Z,8.87
2018-02-16T12:06:41.422Z,8.54
2018-02-16T12:07:41.430Z,8.45
2018-02-16T12:08:41.416Z,8.22
2018-02-16T12:09:41.458Z,8.20
2018-02-16T12:10:41.433Z,8.20
2018-02-16T12:11:41.466Z,8.21
2018-02-16T12:12:41.428Z,8.17
2018-02-16T12:13:41.432Z,8.14
2018-02-16T12:14:41.440Z,7.93
2018-02-16T12:15:41.441Z,7.90
2018-02-16T12:16:41.484Z,7.85
2018-02-16T12:17:41.441Z,7.82
2018-02-16T12:18:41.447Z,7.67
2018-02-16T12:19:41.445Z,7.47
2018-02-16T12:20:41.488Z,7.50
2018-02-16T12:21:41.451Z,7.45
2018-02-16T12:22:41.485Z,7.72
2018-02-16T12:23:41.448Z,7.77
2018-02-16T12:24:41.461Z,7.79
2018-02-16T12:25:41.462Z,7.87
2018-02-16T12:26:41.461Z,7.96
2018-02-16T12:27:41.502Z,7.93
2018-02-16T12:28:41.452Z,7.79
2018-02-16T12:29:41.450Z,7.81
2018-02-16T12:30:41.470Z,7.78
2018-02-16T12:31:41.455Z,8.48
2018-02-16T12:32:41.509Z,9.12
2018-02-16T12:33:41.454Z,8.66
2018-02-16T12:34:41.456Z,8.48
2018-02-16T12:35:42.366Z,8.26
2018-02-16T12:36:41.468Z,8.00
2018-02-16T12:37:41.504Z,7.97
2018-02-16T12:38:41.467Z,7.89
2018-02-16T12:39:41.474Z,7.84
2018-02-16T12:40:41.517Z,7.63
2018-02-16T12:41:41.457Z,7.49
2018-02-16T12:42:41.463Z,7.49
2018-02-16T12:43:41.461Z,7.50
2018-02-16T12:44:41.513Z,7.42
2018-02-16T12:45:41.469Z,7.32
2018-02-16T12:46:41.469Z,7.31
2018-02-16T12:47:41.472Z,7.19
2018-02-16T12:48:41.503Z,7.17
2018-02-16T12:49:41.461Z,7.02
2018-02-16T12:50:41.463Z,6.99
2018-02-16T12:51:41.461Z,6.77
2018-02-16T12:52:41.461Z,6.72
2018-02-16T12:53:41.503Z,6.66
2018-02-16T12:54:41.516Z,6.66
2018-02-16T12:55:41.478Z,6.48
2018-02-16T12:56:41.459Z,6.47
2018-02-16T12:57:41.457Z,6.35
2018-02-16T12:58:41.504Z,6.32
2018-02-16T12:59:41.457Z,6.41
2018-02-16T13:00:41.463Z,6.56
2018-02-16T13:01:41.451Z,6.47
2018-02-16T13:02:41.448Z,6.51
2018-02-16T13:03:41.486Z,6.48
2018-02-16T13:04:41.458Z,6.47
2018-02-16T13:05:41.450Z,6.43
2018-02-16T13:06:41.462Z,6.30
2018-02-16T13:07:41.449Z,6.33
2018-02-16T13:08:41.516Z,6.26
2018-02-16T13:09:41.450Z,6.14
2018-02-16T13:10:41.459Z,6.14
2018-02-16T13:11:41.445Z,6.14
2018-02-16T13:12:41.449Z,6.14
2018-02-16T13:13:41.489Z,6.21